EWG4221 LCLK-EDDL
Flight info
| Callsign | EWG4221 |
|---|---|
| Flight time | N/A |
| Altitude | 36000 |
| Route | PHA M31 GENOS DCT PEDER DCT EVENO DCT BENEM UN127 RIKSO DCT DISOR DCT LONTA UL608 DOLEV DCT RENKA DCT TESDU DCT AMETU T852 TINSA T854 DOMUX DOMUX1A |
| Aircraft | A320/M-SDE3FGHIRWY/LB1 |
Departure
| Time | N/A |
|---|---|
| Airport | Larnaca International Airport (LCLK) |
Arrival
| Time | 2026-05-04 14:11 |
|---|---|
| Airport | Düsseldorf Airport (EDDL) |
| Time | Latitude | Longitude | Altitude | Speed | Heading |
|---|---|---|---|---|---|
| 2026-05-04 13:40 | 50.25783 | 10.28387 | 35986 ft | 419 kts | 300° |
| 2026-05-04 13:41 | 50.27429 | 10.24627 | 35983 ft | 419 kts | 300° |
| 2026-05-04 13:41 | 50.30732 | 10.17109 | 35978 ft | 419 kts | 300° |
| 2026-05-04 13:42 | 50.35735 | 10.05855 | 35977 ft | 420 kts | 300° |
| 2026-05-04 13:42 | 50.39065 | 9.98351 | 35980 ft | 420 kts | 300° |
| 2026-05-04 13:43 | 50.42400 | 9.90823 | 35981 ft | 420 kts | 300° |
| 2026-05-04 13:43 | 50.45723 | 9.83274 | 35981 ft | 420 kts | 300° |
| 2026-05-04 13:44 | 50.49040 | 9.75734 | 35979 ft | 420 kts | 300° |
| 2026-05-04 13:44 | 50.52334 | 9.68237 | 35981 ft | 419 kts | 300° |
| 2026-05-04 13:45 | 50.55632 | 9.60676 | 35985 ft | 419 kts | 300° |
| 2026-05-04 13:45 | 50.58923 | 9.53098 | 35982 ft | 419 kts | 300° |
| 2026-05-04 13:46 | 50.62213 | 9.45527 | 35984 ft | 419 kts | 300° |
| 2026-05-04 13:46 | 50.65491 | 9.37975 | 35982 ft | 418 kts | 299° |
| 2026-05-04 13:47 | 50.68763 | 9.30383 | 35937 ft | 419 kts | 299° |
| 2026-05-04 13:47 | 50.70402 | 9.26579 | 35677 ft | 419 kts | 299° |
| 2026-05-04 13:47 | 50.72037 | 9.22784 | 35381 ft | 417 kts | 299° |
| 2026-05-04 13:48 | 50.73656 | 9.19020 | 34871 ft | 413 kts | 299° |
| 2026-05-04 13:48 | 50.75268 | 9.15271 | 34350 ft | 410 kts | 299° |
| 2026-05-04 13:48 | 50.76864 | 9.11553 | 33841 ft | 408 kts | 298° |
| 2026-05-04 13:48 | 50.78450 | 9.07857 | 33328 ft | 405 kts | 298° |
| 2026-05-04 13:49 | 50.80022 | 9.04178 | 32820 ft | 402 kts | 298° |
| 2026-05-04 13:49 | 50.81580 | 9.00526 | 32313 ft | 400 kts | 298° |
| 2026-05-04 13:49 | 50.83127 | 8.96895 | 31803 ft | 397 kts | 299° |
| 2026-05-04 13:49 | 50.84732 | 8.93339 | 31283 ft | 397 kts | 301° |
| 2026-05-04 13:50 | 50.86419 | 8.89887 | 30778 ft | 396 kts | 303° |
| 2026-05-04 13:50 | 50.88145 | 8.86510 | 30274 ft | 394 kts | 303° |
| 2026-05-04 13:50 | 50.89879 | 8.83170 | 29776 ft | 391 kts | 304° |
| 2026-05-04 13:50 | 50.91601 | 8.79844 | 29284 ft | 388 kts | 303° |
| 2026-05-04 13:51 | 50.93296 | 8.76526 | 28809 ft | 385 kts | 303° |
| 2026-05-04 13:51 | 50.94935 | 8.73279 | 28346 ft | 382 kts | 303° |
| 2026-05-04 13:51 | 50.96578 | 8.69991 | 27892 ft | 378 kts | 303° |
| 2026-05-04 13:51 | 50.98195 | 8.66735 | 27444 ft | 374 kts | 303° |
| 2026-05-04 13:52 | 51.01468 | 8.60387 | 26596 ft | 370 kts | 310° |
| 2026-05-04 13:52 | 51.03454 | 8.57778 | 26166 ft | 373 kts | 321° |
| 2026-05-04 13:52 | 51.05630 | 8.55528 | 25721 ft | 371 kts | 322° |
| 2026-05-04 13:53 | 51.07787 | 8.53307 | 25288 ft | 368 kts | 321° |
| 2026-05-04 13:53 | 51.09927 | 8.51094 | 24821 ft | 366 kts | 322° |
| 2026-05-04 13:53 | 51.12058 | 8.48888 | 24365 ft | 364 kts | 321° |
| 2026-05-04 13:54 | 51.16285 | 8.44506 | 23412 ft | 361 kts | 321° |
| 2026-05-04 13:54 | 51.18382 | 8.42322 | 22940 ft | 360 kts | 321° |
| 2026-05-04 13:54 | 51.22562 | 8.37944 | 21994 ft | 358 kts | 321° |
| 2026-05-04 13:55 | 51.24642 | 8.35749 | 21524 ft | 358 kts | 321° |
| 2026-05-04 13:55 | 51.28799 | 8.31381 | 20592 ft | 357 kts | 322° |
| 2026-05-04 13:55 | 51.30873 | 8.29206 | 20115 ft | 356 kts | 322° |
| 2026-05-04 13:56 | 51.32947 | 8.27031 | 19666 ft | 356 kts | 322° |
| 2026-05-04 13:56 | 51.35009 | 8.24864 | 19208 ft | 354 kts | 322° |
| 2026-05-04 13:56 | 51.39112 | 8.20543 | 18319 ft | 352 kts | 322° |
| 2026-05-04 13:57 | 51.41152 | 8.18397 | 17884 ft | 350 kts | 322° |
| 2026-05-04 13:57 | 51.43189 | 8.16250 | 17435 ft | 350 kts | 322° |
| 2026-05-04 13:58 | 51.48909 | 8.09315 | 16061 ft | 338 kts | 302° |
| 2026-05-04 13:58 | 51.50356 | 8.02440 | 15201 ft | 324 kts | 268° |
| 2026-05-04 13:58 | 51.50048 | 7.98906 | 14780 ft | 319 kts | 253° |
| 2026-05-04 13:59 | 51.49435 | 7.95490 | 14372 ft | 317 kts | 253° |
| 2026-05-04 13:59 | 51.48831 | 7.92087 | 13944 ft | 317 kts | 253° |
| 2026-05-04 13:59 | 51.47628 | 7.85248 | 13084 ft | 315 kts | 253° |
| 2026-05-04 14:00 | 51.47037 | 7.81916 | 12679 ft | 314 kts | 253° |
| 2026-05-04 14:00 | 51.45874 | 7.75379 | 12391 ft | 296 kts | 253° |
| 2026-05-04 14:00 | 51.45316 | 7.72251 | 12190 ft | 290 kts | 253° |
| 2026-05-04 14:01 | 51.44753 | 7.69116 | 11876 ft | 288 kts | 253° |
| 2026-05-04 14:01 | 51.44201 | 7.66046 | 11553 ft | 286 kts | 253° |
| 2026-05-04 14:01 | 51.43110 | 7.59999 | 10509 ft | 282 kts | 253° |
| 2026-05-04 14:02 | 51.42557 | 7.56940 | 9839 ft | 282 kts | 253° |
| 2026-05-04 14:02 | 51.42041 | 7.53922 | 9173 ft | 281 kts | 259° |
| 2026-05-04 14:02 | 51.41875 | 7.50823 | 8699 ft | 279 kts | 266° |
| 2026-05-04 14:02 | 51.41783 | 7.47711 | 8280 ft | 280 kts | 266° |
| 2026-05-04 14:03 | 51.41683 | 7.44593 | 7857 ft | 280 kts | 266° |
| 2026-05-04 14:03 | 51.41580 | 7.41484 | 7435 ft | 280 kts | 266° |
| 2026-05-04 14:03 | 51.41478 | 7.38389 | 7074 ft | 277 kts | 266° |
| 2026-05-04 14:03 | 51.41377 | 7.35345 | 6665 ft | 277 kts | 266° |
| 2026-05-04 14:04 | 51.41173 | 7.29258 | 5812 ft | 270 kts | 266° |
| 2026-05-04 14:04 | 51.41073 | 7.26275 | 5279 ft | 264 kts | 266° |
| 2026-05-04 14:04 | 51.40977 | 7.23376 | 4840 ft | 257 kts | 267° |
| 2026-05-04 14:05 | 51.40811 | 7.18387 | 4185 ft | 254 kts | 265° |
| 2026-05-04 14:05 | 51.40716 | 7.15635 | 4105 ft | 242 kts | 266° |
| 2026-05-04 14:05 | 51.40620 | 7.12998 | 4018 ft | 233 kts | 266° |
| 2026-05-04 14:06 | 51.40528 | 7.10469 | 3920 ft | 223 kts | 266° |
| 2026-05-04 14:06 | 51.40440 | 7.08018 | 3814 ft | 217 kts | 266° |
| 2026-05-04 14:06 | 51.40355 | 7.05613 | 3717 ft | 217 kts | 266° |
| 2026-05-04 14:06 | 51.40270 | 7.03191 | 3621 ft | 218 kts | 266° |
| 2026-05-04 14:07 | 51.40163 | 7.00776 | 3516 ft | 218 kts | 259° |
| 2026-05-04 14:07 | 51.39604 | 6.98560 | 3303 ft | 215 kts | 234° |
| 2026-05-04 14:07 | 51.38698 | 6.96630 | 3041 ft | 220 kts | 232° |
| 2026-05-04 14:07 | 51.37766 | 6.94671 | 2737 ft | 222 kts | 233° |
| 2026-05-04 14:08 | 51.36844 | 6.92725 | 2434 ft | 215 kts | 233° |
| 2026-05-04 14:08 | 51.35958 | 6.90854 | 2159 ft | 207 kts | 233° |
| 2026-05-04 14:08 | 51.35102 | 6.89046 | 1899 ft | 198 kts | 233° |
| 2026-05-04 14:08 | 51.34300 | 6.87357 | 1648 ft | 184 kts | 233° |
| 2026-05-04 14:09 | 51.32856 | 6.84314 | 1188 ft | 160 kts | 233° |
| 2026-05-04 14:09 | 51.32213 | 6.82960 | 1003 ft | 146 kts | 233° |
| 2026-05-04 14:10 | 51.31036 | 6.80480 | 621 ft | 137 kts | 233° |
| 2026-05-04 14:10 | 51.30460 | 6.79268 | 425 ft | 137 kts | 233° |
| 2026-05-04 14:10 | 51.29885 | 6.78060 | 256 ft | 137 kts | 233° |
| 2026-05-04 14:10 | 51.29320 | 6.76872 | 133 ft | 127 kts | 232° |
| 2026-05-04 14:11 | 51.28878 | 6.75941 | 126 ft | 80 kts | 232° |
| 2026-05-04 14:11 | 51.28648 | 6.75682 | 122 ft | 14 kts | 193° |
| 2026-05-04 14:11 | 51.28552 | 6.75679 | 122 ft | 14 kts | 162° |
| 2026-05-04 14:12 | 51.28473 | 6.75763 | 122 ft | 13 kts | 142° |
| 2026-05-04 14:12 | 51.28405 | 6.75849 | 127 ft | 11 kts | 141° |
| 2026-05-04 14:12 | 51.28307 | 6.75975 | 130 ft | 13 kts | 142° |
| 2026-05-04 14:13 | 51.28217 | 6.75965 | 128 ft | 14 kts | 203° |
| 2026-05-04 14:13 | 51.28126 | 6.75900 | 126 ft | 15 kts | 204° |
| 2026-05-04 14:13 | 51.28026 | 6.75837 | 126 ft | 16 kts | 198° |
| 2026-05-04 14:13 | 51.27910 | 6.75818 | 129 ft | 14 kts | 181° |
| 2026-05-04 14:14 | 51.27858 | 6.75841 | 126 ft | 7 kts | 143° |
| 2026-05-04 14:14 | 51.27844 | 6.75936 | 130 ft | 4 kts | 92° |
| 2026-05-04 14:14 | 51.27843 | 6.75989 | 128 ft | 11 kts | 93° |
| 2026-05-04 14:15 | 51.27872 | 6.76199 | 126 ft | 9 kts | 45° |
| 2026-05-04 14:15 | 51.27905 | 6.76253 | 130 ft | 2 kts | 45° |